createdAt,value
2023-11-03T00:00:10.577Z,6.20
2023-11-03T00:02:38.402Z,6.20
2023-11-03T00:05:09.869Z,6.10
2023-11-03T00:07:36.961Z,6.00
2023-11-03T00:10:06.845Z,6.10
2023-11-03T00:12:37.261Z,5.60
2023-11-03T00:15:04.586Z,6.00
2023-11-03T00:17:31.262Z,5.80
2023-11-03T00:19:57.969Z,5.80
2023-11-03T00:22:28.081Z,5.90
2023-11-03T00:24:54.794Z,5.90
2023-11-03T00:27:22.374Z,5.90
2023-11-03T00:29:50.046Z,5.90
2023-11-03T00:32:17.883Z,5.90
2023-11-03T00:34:44.787Z,5.80
2023-11-03T00:37:11.594Z,5.70
2023-11-03T00:39:40.386Z,5.70
2023-11-03T00:42:07.972Z,5.70
2023-11-03T00:44:35.464Z,5.70
2023-11-03T00:47:02.455Z,5.50
2023-11-03T00:49:29.344Z,5.60
2023-11-03T00:51:56.239Z,5.50
2023-11-03T00:54:23.715Z,5.60
2023-11-03T00:56:50.489Z,5.60
2023-11-03T00:59:18.254Z,6.80
2023-11-03T01:01:47.102Z,5.40
2023-11-03T01:04:14.064Z,5.30
2023-11-03T01:06:42.702Z,5.40
2023-11-03T01:09:10.518Z,5.20
2023-11-03T01:11:38.179Z,5.20
2023-11-03T01:14:06.184Z,5.20
2023-11-03T01:16:34.673Z,5.20
2023-11-03T01:19:05.656Z,4.40
2023-11-03T01:21:33.114Z,4.50
2023-11-03T01:23:59.807Z,4.50
2023-11-03T01:26:26.570Z,5.00
2023-11-03T01:28:53.893Z,4.80
2023-11-03T01:31:20.730Z,4.90
2023-11-03T01:33:48.350Z,5.10
2023-11-03T01:38:42.194Z,5.00
2023-11-03T01:55:53.924Z,4.70
2023-11-03T01:58:21.099Z,4.70
2023-11-03T02:00:48.137Z,4.60
2023-11-03T02:03:14.835Z,4.60
2023-11-03T02:15:32.139Z,3.90
2023-11-03T02:20:25.895Z,3.90
2023-11-03T02:22:53.832Z,4.00
2023-11-03T02:25:20.515Z,4.10
2023-11-03T02:27:47.400Z,4.10
2023-11-03T02:30:14.577Z,4.00
2023-11-03T02:32:41.273Z,3.90
2023-11-03T02:35:08.173Z,3.90
2023-11-03T02:37:34.854Z,3.90
2023-11-03T02:40:01.635Z,3.90
2023-11-03T02:44:55.685Z,3.90
2023-11-03T02:47:22.369Z,4.00
2023-11-03T02:49:49.613Z,4.10
2023-11-03T02:52:16.362Z,4.00
2023-11-03T02:54:43.131Z,3.80
2023-11-03T02:57:09.755Z,3.80
2023-11-03T02:59:36.380Z,3.80
2023-11-03T03:04:33.051Z,3.50
2023-11-03T03:06:59.800Z,3.50
2023-11-03T03:09:26.476Z,3.40
2023-11-03T03:11:53.177Z,3.30
2023-11-03T03:14:19.950Z,3.30
2023-11-03T03:16:47.222Z,3.40
2023-11-03T03:19:14.560Z,3.40
2023-11-03T03:21:41.286Z,3.50
2023-11-03T03:24:08.023Z,3.50
2023-11-03T03:26:34.803Z,3.40
2023-11-03T03:29:01.498Z,3.30
2023-11-03T03:31:28.145Z,3.40
2023-11-03T03:33:54.866Z,3.40
2023-11-03T03:36:21.831Z,3.30
2023-11-03T03:38:48.583Z,3.20
2023-11-03T03:41:15.321Z,2.80
2023-11-03T03:43:42.087Z,3.20
2023-11-03T03:46:09.004Z,3.20
2023-11-03T03:48:35.734Z,3.20
2023-11-03T03:51:02.468Z,3.10
2023-11-03T03:53:29.182Z,3.20
2023-11-03T03:55:55.910Z,3.20
2023-11-03T03:58:22.606Z,3.20
2023-11-03T04:00:49.340Z,3.20
2023-11-03T04:03:16.038Z,3.10
2023-11-03T04:05:42.862Z,3.10
2023-11-03T04:08:09.557Z,2.80
2023-11-03T04:10:36.327Z,2.90
2023-11-03T04:13:02.957Z,2.80
2023-11-03T04:15:29.569Z,2.80
2023-11-03T04:20:23.468Z,2.70
2023-11-03T04:22:50.848Z,2.50
2023-11-03T04:25:17.974Z,2.50
2023-11-03T04:27:44.638Z,2.50
2023-11-03T04:30:11.657Z,2.50
2023-11-03T04:32:38.342Z,2.60
2023-11-03T04:35:05.377Z,2.60
2023-11-03T04:37:32.093Z,2.50
2023-11-03T04:39:58.729Z,2.40
2023-11-03T04:42:25.365Z,2.30
2023-11-03T04:44:51.994Z,2.30
2023-11-03T04:47:18.965Z,2.10
2023-11-03T04:49:45.662Z,2.10
2023-11-03T04:52:12.345Z,2.00
2023-11-03T04:54:38.985Z,2.10
2023-11-03T04:57:08.123Z,2.10
2023-11-03T04:59:34.780Z,2.20
2023-11-03T05:02:01.396Z,2.20
2023-11-03T05:04:28.050Z,2.30
2023-11-03T05:06:54.736Z,2.30
2023-11-03T05:09:21.412Z,2.30
2023-11-03T05:11:48.140Z,2.20
2023-11-03T05:14:14.733Z,1.90
2023-11-03T05:16:41.419Z,1.90
2023-11-03T05:19:08.092Z,2.10
2023-11-03T05:21:34.781Z,2.20
2023-11-03T05:24:01.522Z,2.20
2023-11-03T05:26:28.195Z,2.30
2023-11-03T05:28:56.892Z,2.40
2023-11-03T05:31:23.539Z,2.50
2023-11-03T05:33:50.313Z,2.40
2023-11-03T05:36:17.059Z,2.40
2023-11-03T05:38:43.721Z,2.50
2023-11-03T05:41:12.430Z,2.60
2023-11-03T05:43:39.056Z,2.60
2023-11-03T05:46:05.817Z,2.60
2023-11-03T05:48:32.748Z,2.60
2023-11-03T05:50:59.477Z,2.60
2023-11-03T05:53:26.146Z,2.60
2023-11-03T05:55:53.187Z,2.60
2023-11-03T05:58:20.174Z,2.70
2023-11-03T06:05:41.477Z,2.80
2023-11-03T06:08:08.151Z,3.10
2023-11-03T06:10:36.027Z,3.10
2023-11-03T06:13:02.987Z,3.30
2023-11-03T06:15:30.002Z,3.30
2023-11-03T06:17:57.137Z,3.30
2023-11-03T06:20:23.886Z,3.40
2023-11-03T06:22:50.538Z,3.50
2023-11-03T06:25:17.433Z,3.60
2023-11-03T06:27:44.169Z,3.60
2023-11-03T06:30:11.015Z,3.70
2023-11-03T06:32:38.116Z,3.70
2023-11-03T06:35:05.100Z,3.70
2023-11-03T06:37:34.240Z,3.80
2023-11-03T06:40:02.565Z,3.80
2023-11-03T06:42:29.274Z,3.80
2023-11-03T06:44:56.030Z,4.00
2023-11-03T06:47:22.718Z,4.00
2023-11-03T06:49:49.431Z,3.90
2023-11-03T06:52:16.359Z,4.00
2023-11-03T06:54:44.701Z,5.10
2023-11-03T06:57:11.456Z,4.80
2023-11-03T06:59:38.081Z,4.30
2023-11-03T07:02:04.901Z,4.50
2023-11-03T07:04:33.976Z,4.60
2023-11-03T07:07:00.819Z,4.50
2023-11-03T07:09:27.464Z,4.70
2023-11-03T07:11:56.052Z,3.40
2023-11-03T07:14:25.209Z,4.70
2023-11-03T07:16:54.087Z,5.20
2023-11-03T07:19:21.364Z,5.30
2023-11-03T07:21:49.188Z,5.30
2023-11-03T07:24:15.889Z,5.30
2023-11-03T07:29:10.891Z,5.30
2023-11-03T07:31:39.890Z,6.10
2023-11-03T07:34:06.925Z,6.20
2023-11-03T07:36:33.837Z,5.80
2023-11-03T07:39:00.609Z,5.90
2023-11-03T07:41:27.350Z,5.90
2023-11-03T07:43:55.188Z,5.90
2023-11-03T07:46:22.625Z,5.90
2023-11-03T07:48:49.395Z,6.00
2023-11-03T07:51:16.111Z,6.40
2023-11-03T07:53:43.056Z,6.40
2023-11-03T07:56:09.714Z,6.00
2023-11-03T07:58:36.873Z,6.10
2023-11-03T08:01:06.535Z,6.00
2023-11-03T08:03:35.096Z,6.10
2023-11-03T08:06:02.939Z,6.10
2023-11-03T08:08:29.652Z,6.30
2023-11-03T08:10:56.708Z,6.30
2023-11-03T08:13:23.721Z,6.40
2023-11-03T08:15:53.542Z,6.50
2023-11-03T08:18:20.386Z,6.70
2023-11-03T08:20:47.125Z,6.70
2023-11-03T08:23:18.505Z,6.70
2023-11-03T08:25:46.741Z,6.50
2023-11-03T08:28:13.659Z,7.00
2023-11-03T08:30:43.425Z,7.40
2023-11-03T08:33:10.421Z,6.90
2023-11-03T08:35:37.166Z,7.00
2023-11-03T08:38:05.173Z,7.10
2023-11-03T08:40:31.985Z,7.30
2023-11-03T08:42:58.756Z,7.40
2023-11-03T08:45:26.918Z,7.40
2023-11-03T08:47:53.790Z,7.40
2023-11-03T08:52:48.477Z,7.50
2023-11-03T08:55:15.964Z,7.50
2023-11-03T09:00:11.073Z,7.60
2023-11-03T09:02:38.620Z,7.60
2023-11-03T09:05:06.080Z,7.70
2023-11-03T09:07:32.920Z,7.60
2023-11-03T09:09:59.592Z,7.60
2023-11-03T09:12:26.327Z,7.70
2023-11-03T09:14:53.181Z,7.70
2023-11-03T09:17:20.835Z,7.50
2023-11-03T09:19:47.472Z,7.60
2023-11-03T09:22:18.959Z,7.80
2023-11-03T09:24:50.044Z,7.80
2023-11-03T09:27:16.758Z,7.50
2023-11-03T09:29:43.390Z,7.60
2023-11-03T09:32:11.130Z,7.80
2023-11-03T09:34:37.985Z,7.80
2023-11-03T09:37:05.243Z,7.90
2023-11-03T09:39:37.518Z,7.90
2023-11-03T09:42:05.235Z,7.80
2023-11-03T09:44:33.195Z,7.90
2023-11-03T09:47:01.390Z,7.80
2023-11-03T09:49:28.699Z,7.80
2023-11-03T09:52:03.256Z,7.90
2023-11-03T09:54:31.223Z,8.00
2023-11-03T09:56:58.686Z,8.20
2023-11-03T09:59:26.424Z,7.80
2023-11-03T10:01:54.802Z,7.80
2023-11-03T10:04:22.005Z,7.90
2023-11-03T10:09:17.901Z,8.10
2023-11-03T10:11:45.520Z,8.00
2023-11-03T10:14:13.012Z,8.00
2023-11-03T10:16:40.174Z,8.10
2023-11-03T10:19:07.280Z,8.00
2023-11-03T10:21:33.974Z,8.00
2023-11-03T10:24:01.828Z,8.00
2023-11-03T10:26:29.427Z,8.10
2023-11-03T10:28:56.074Z,8.10
2023-11-03T10:33:50.244Z,8.30
2023-11-03T10:36:16.977Z,8.00
2023-11-03T10:38:53.146Z,8.00
2023-11-03T10:41:26.988Z,8.00
2023-11-03T10:43:57.665Z,8.00
2023-11-03T10:46:38.446Z,8.00
2023-11-03T10:49:12.855Z,8.10
2023-11-03T10:51:43.005Z,8.10
2023-11-03T10:54:28.195Z,8.20
2023-11-03T10:57:18.280Z,8.30
2023-11-03T10:59:45.756Z,7.40
2023-11-03T11:02:15.445Z,7.90
2023-11-03T11:07:16.175Z,8.40
2023-11-03T11:09:46.989Z,8.30
2023-11-03T11:12:15.193Z,9.00
2023-11-03T11:14:43.883Z,8.50
2023-11-03T11:17:11.728Z,8.40
2023-11-03T11:19:45.383Z,8.40
2023-11-03T11:22:18.580Z,8.40
2023-11-03T11:24:47.795Z,8.50
2023-11-03T11:27:21.944Z,8.40
2023-11-03T11:29:51.110Z,8.40
2023-11-03T11:32:19.471Z,8.30
2023-11-03T11:34:47.272Z,8.40
2023-11-03T11:37:25.305Z,8.10
2023-11-03T11:39:53.545Z,8.30
2023-11-03T11:42:20.641Z,8.50
2023-11-03T11:44:50.279Z,8.50
2023-11-03T11:47:18.234Z,8.60
2023-11-03T11:49:47.207Z,8.60
2023-11-03T11:52:14.855Z,8.50
2023-11-03T11:54:41.517Z,8.50
2023-11-03T11:57:08.924Z,8.50
2023-11-03T11:59:36.394Z,8.60
2023-11-03T12:02:04.105Z,8.80
2023-11-03T12:04:31.956Z,8.70
2023-11-03T12:06:58.740Z,8.90
2023-11-03T12:09:25.389Z,8.90
2023-11-03T12:11:52.491Z,8.90
2023-11-03T12:14:19.201Z,8.70
2023-11-03T12:16:45.901Z,8.70
2023-11-03T12:19:14.325Z,8.70
2023-11-03T12:21:42.935Z,8.70
2023-11-03T12:24:09.701Z,8.70
2023-11-03T12:26:36.302Z,8.40
2023-11-03T12:29:21.833Z,8.70
2023-11-03T12:31:49.696Z,8.80
2023-11-03T12:34:16.958Z,8.80
2023-11-03T12:36:43.655Z,8.90
2023-11-03T12:39:10.261Z,8.90
2023-11-03T12:41:36.902Z,8.80
2023-11-03T12:44:06.343Z,8.70
2023-11-03T12:46:36.723Z,8.50
2023-11-03T12:49:13.208Z,8.80
2023-11-03T12:51:41.458Z,8.60
2023-11-03T12:54:17.461Z,8.60
2023-11-03T12:56:47.598Z,8.70
2023-11-03T12:59:14.277Z,8.60
2023-11-03T13:01:41.026Z,8.60
2023-11-03T13:04:07.762Z,8.50
2023-11-03T13:06:34.755Z,8.60
2023-11-03T13:09:01.865Z,8.50
2023-11-03T13:11:28.538Z,8.70
2023-11-03T13:13:55.155Z,8.50
2023-11-03T13:16:21.936Z,8.60
2023-11-03T13:18:50.211Z,8.60
2023-11-03T13:21:17.703Z,8.50
2023-11-03T13:23:45.111Z,8.50
2023-11-03T13:26:12.325Z,8.40
2023-11-03T13:28:39.097Z,8.50
2023-11-03T13:31:06.131Z,8.00
2023-11-03T13:33:32.844Z,8.40
2023-11-03T13:35:59.622Z,8.40
2023-11-03T13:38:27.054Z,8.40
2023-11-03T13:40:54.877Z,7.90
2023-11-03T13:43:23.680Z,8.10
2023-11-03T13:45:50.450Z,8.10
2023-11-03T13:48:17.243Z,8.30
2023-11-03T13:50:44.084Z,8.40
2023-11-03T13:53:11.139Z,9.30
2023-11-03T13:55:38.321Z,8.30
2023-11-03T13:58:05.143Z,8.40
2023-11-03T14:00:32.570Z,8.40
2023-11-03T14:03:04.656Z,8.40
2023-11-03T14:05:32.752Z,8.60
2023-11-03T14:10:57.796Z,8.70
2023-11-03T14:13:56.509Z,8.70
2023-11-03T14:16:26.389Z,9.10
2023-11-03T14:18:53.551Z,8.50
2023-11-03T14:21:23.380Z,8.40
2023-11-03T14:23:51.743Z,7.90
2023-11-03T14:26:19.177Z,8.40
2023-11-03T14:28:46.240Z,8.40
2023-11-03T14:31:12.852Z,8.30
2023-11-03T14:33:39.698Z,8.30
2023-11-03T14:36:08.177Z,8.40
2023-11-03T14:38:35.262Z,8.50
2023-11-03T14:41:03.906Z,8.20
2023-11-03T14:43:30.978Z,8.20
2023-11-03T14:45:58.588Z,8.20
2023-11-03T14:48:25.331Z,8.10
2023-11-03T14:50:52.069Z,7.90
2023-11-03T14:53:18.768Z,7.30
2023-11-03T14:55:46.018Z,8.10
2023-11-03T14:58:12.984Z,8.20
2023-11-03T15:00:43.496Z,8.20
2023-11-03T15:03:11.022Z,8.10
2023-11-03T15:05:38.408Z,7.40
2023-11-03T15:08:05.389Z,9.70
2023-11-03T15:10:32.040Z,8.20
2023-11-03T15:12:59.543Z,8.10
2023-11-03T15:15:26.252Z,8.00
2023-11-03T15:17:53.327Z,8.00
2023-11-03T15:20:20.303Z,8.00
2023-11-03T15:22:47.661Z,8.20
2023-11-03T15:25:17.041Z,8.90
2023-11-03T15:27:47.707Z,7.60
2023-11-03T15:30:15.698Z,8.10
2023-11-03T15:32:43.109Z,7.40
2023-11-03T15:35:12.848Z,7.70
2023-11-03T15:37:41.387Z,8.00
2023-11-03T15:40:15.817Z,8.00
2023-11-03T15:42:42.686Z,8.00
2023-11-03T15:45:14.328Z,8.00
2023-11-03T15:47:41.069Z,8.00
2023-11-03T15:50:13.341Z,7.90
2023-11-03T15:52:40.517Z,7.90
2023-11-03T15:55:10.880Z,7.90
2023-11-03T15:57:37.903Z,7.90
2023-11-03T16:00:05.298Z,7.90
2023-11-03T16:02:31.914Z,7.80
2023-11-03T16:04:58.683Z,7.70
2023-11-03T16:07:25.326Z,7.70
2023-11-03T16:09:52.021Z,7.70
2023-11-03T16:12:18.766Z,7.30
2023-11-03T16:14:46.607Z,7.60
2023-11-03T16:17:16.566Z,8.50
2023-11-03T16:19:43.340Z,7.10
2023-11-03T16:22:10.022Z,7.50
2023-11-03T16:24:36.966Z,7.60
2023-11-03T16:27:03.708Z,6.90
2023-11-03T16:29:30.387Z,7.50
2023-11-03T16:31:58.088Z,7.50
2023-11-03T16:34:24.909Z,7.60
2023-11-03T16:36:51.839Z,7.60
2023-11-03T16:39:18.597Z,7.50
2023-11-03T16:41:45.570Z,7.60
2023-11-03T16:44:12.275Z,7.70
2023-11-03T16:46:39.129Z,7.60
2023-11-03T16:49:09.161Z,7.40
2023-11-03T16:51:36.396Z,7.60
2023-11-03T16:54:03.627Z,7.60
2023-11-03T16:56:30.387Z,8.00
2023-11-03T16:58:59.220Z,7.50
2023-11-03T17:01:26.735Z,7.50
2023-11-03T17:03:55.994Z,7.50
2023-11-03T17:06:24.109Z,6.30
2023-11-03T17:08:50.793Z,7.40
2023-11-03T17:11:20.134Z,7.40
2023-11-03T17:13:49.068Z,7.30
2023-11-03T17:16:18.686Z,6.90
2023-11-03T17:18:45.388Z,6.50
2023-11-03T17:21:12.144Z,7.10
2023-11-03T17:23:38.819Z,7.20
2023-11-03T17:26:09.175Z,7.00
2023-11-03T17:28:36.032Z,7.00
2023-11-03T17:31:08.280Z,7.00
2023-11-03T17:33:35.020Z,7.60
2023-11-03T17:36:01.716Z,7.00
2023-11-03T17:38:28.429Z,6.70
2023-11-03T17:40:55.136Z,6.60
2023-11-03T17:43:21.860Z,6.10
2023-11-03T17:45:50.616Z,5.90
2023-11-03T17:48:17.372Z,6.70
2023-11-03T17:50:46.299Z,6.60
2023-11-03T17:53:13.004Z,6.60
2023-11-03T17:55:39.728Z,7.80
2023-11-03T17:58:07.429Z,6.20
2023-11-03T18:00:34.227Z,6.30
2023-11-03T18:03:01.001Z,6.60
2023-11-03T18:05:27.736Z,6.60
2023-11-03T18:07:54.621Z,6.60
2023-11-03T18:10:21.528Z,6.60
2023-11-03T18:12:50.358Z,6.70
2023-11-03T18:15:21.865Z,5.70
2023-11-03T18:17:48.747Z,5.50
2023-11-03T18:20:18.022Z,6.50
2023-11-03T18:22:45.694Z,6.40
2023-11-03T18:25:12.990Z,5.70
2023-11-03T18:27:40.304Z,6.50
2023-11-03T18:30:13.096Z,5.70
2023-11-03T18:32:40.581Z,6.50
2023-11-03T18:35:08.898Z,6.50
2023-11-03T18:37:39.373Z,6.60
2023-11-03T18:40:08.390Z,6.60
2023-11-03T18:42:35.544Z,6.60
2023-11-03T18:45:02.401Z,6.20
2023-11-03T18:47:29.082Z,6.10
2023-11-03T18:52:26.119Z,7.90
2023-11-03T19:00:24.703Z,6.50
2023-11-03T19:07:06.288Z,5.60
2023-11-03T19:07:58.013Z,6.40
2023-11-03T19:10:24.960Z,5.70
2023-11-03T19:12:51.916Z,6.40
2023-11-03T19:15:20.383Z,6.40
2023-11-03T19:17:47.431Z,6.40
2023-11-03T19:20:15.155Z,6.50
2023-11-03T19:22:41.957Z,6.80
2023-11-03T19:25:09.040Z,6.60
2023-11-03T19:27:35.855Z,6.40
2023-11-03T19:30:04.291Z,5.50
2023-11-03T19:32:32.236Z,6.40
2023-11-03T19:34:59.237Z,6.30
2023-11-03T19:37:27.745Z,6.30
2023-11-03T19:39:54.528Z,6.30
2023-11-03T19:42:21.329Z,6.70
2023-11-03T19:44:48.156Z,6.50
2023-11-03T19:47:14.944Z,6.30
2023-11-03T19:49:41.830Z,6.20
2023-11-03T19:52:08.596Z,6.20
2023-11-03T19:54:35.959Z,6.20
2023-11-03T19:57:02.915Z,5.40
2023-11-03T19:59:29.682Z,5.90
2023-11-03T20:01:56.409Z,7.50
2023-11-03T20:04:26.414Z,5.90
2023-11-03T20:06:54.826Z,6.20
2023-11-03T20:09:21.839Z,6.10
2023-11-03T20:11:48.673Z,6.10
2023-11-03T20:14:17.241Z,5.60
2023-11-03T20:16:44.692Z,5.90
2023-11-03T20:19:12.327Z,5.70
2023-11-03T20:21:39.258Z,7.50
2023-11-03T20:24:06.267Z,6.10
2023-11-03T20:26:32.967Z,6.40
2023-11-03T20:28:59.796Z,6.10
2023-11-03T20:31:26.615Z,7.30
2023-11-03T20:33:53.346Z,6.00
2023-11-03T20:36:20.677Z,5.90
2023-11-03T20:38:47.405Z,6.10
2023-11-03T20:41:14.060Z,6.10
2023-11-03T20:43:41.100Z,6.00
2023-11-03T20:46:07.883Z,6.10
2023-11-03T20:48:34.954Z,5.80
2023-11-03T20:51:02.653Z,5.70
2023-11-03T20:53:29.487Z,5.80
2023-11-03T20:55:56.324Z,5.50
2023-11-03T20:58:23.108Z,5.80
2023-11-03T21:00:50.153Z,5.70
2023-11-03T21:03:18.217Z,6.20
2023-11-03T21:05:45.621Z,5.90
2023-11-03T21:08:12.547Z,7.00
2023-11-03T21:10:39.714Z,6.00
2023-11-03T21:13:07.616Z,5.80
2023-11-03T21:15:34.525Z,7.00
2023-11-03T21:18:01.332Z,5.80
2023-11-03T21:20:28.090Z,5.60
2023-11-03T21:22:54.916Z,5.90
2023-11-03T21:25:21.836Z,5.90
2023-11-03T21:27:48.678Z,5.50
2023-11-03T21:30:15.568Z,6.00
2023-11-03T21:32:42.503Z,6.00
2023-11-03T21:35:10.594Z,5.90
2023-11-03T21:37:37.638Z,5.90
2023-11-03T21:40:05.059Z,5.90
2023-11-03T21:42:31.849Z,6.00
2023-11-03T21:44:59.066Z,5.90
2023-11-03T21:47:26.592Z,5.70
2023-11-03T21:49:53.352Z,5.80
2023-11-03T21:52:20.094Z,5.80
2023-11-03T21:54:46.859Z,5.70
2023-11-03T21:57:15.060Z,7.40
2023-11-03T21:59:42.110Z,6.50
2023-11-03T22:02:08.872Z,6.70
2023-11-03T22:04:35.785Z,5.50
2023-11-03T22:07:04.502Z,5.40
2023-11-03T22:09:31.433Z,7.00
2023-11-03T22:11:58.164Z,6.50
2023-11-03T22:14:27.639Z,4.50
2023-11-03T22:16:54.372Z,5.00
2023-11-03T22:19:21.087Z,5.40
2023-11-03T22:21:47.956Z,5.40
2023-11-03T22:24:14.844Z,5.10
2023-11-03T22:26:44.373Z,5.20
2023-11-03T22:29:12.124Z,5.10
2023-11-03T22:31:48.051Z,5.30
2023-11-03T22:34:19.638Z,5.40
2023-11-03T22:36:46.862Z,5.40
2023-11-03T22:39:20.530Z,6.20
2023-11-03T22:41:47.949Z,5.30
2023-11-03T22:44:14.743Z,5.30
2023-11-03T22:46:41.461Z,5.20
2023-11-03T22:49:08.272Z,4.70
2023-11-03T22:51:35.265Z,5.30
2023-11-03T22:54:02.757Z,5.20
2023-11-03T22:56:29.550Z,5.10
2023-11-03T22:58:56.540Z,5.20
2023-11-03T23:01:24.114Z,5.20
2023-11-03T23:03:50.842Z,5.20
2023-11-03T23:06:19.867Z,5.00
2023-11-03T23:08:47.129Z,5.20
2023-11-03T23:11:13.990Z,4.80
2023-11-03T23:13:40.785Z,4.50
2023-11-03T23:16:08.024Z,5.20
2023-11-03T23:18:35.310Z,5.20
2023-11-03T23:21:05.484Z,5.20
2023-11-03T23:23:32.220Z,5.10
2023-11-03T23:25:59.639Z,5.20
2023-11-03T23:28:26.466Z,5.20
2023-11-03T23:30:53.580Z,5.10
2023-11-03T23:33:20.641Z,5.20
2023-11-03T23:35:47.560Z,5.20
2023-11-03T23:38:17.300Z,5.20
2023-11-03T23:40:44.505Z,5.20
2023-11-03T23:43:11.213Z,5.10
2023-11-03T23:45:37.963Z,5.10
2023-11-03T23:48:06.149Z,5.10
2023-11-03T23:50:32.988Z,5.10
2023-11-03T23:52:59.887Z,5.10
2023-11-03T23:55:26.662Z,4.10
2023-11-03T23:57:54.505Z,4.50
